sensor_id;sensor_type;location;lat;lon;timestamp;temperature;humidity
24091;DHT22;12272;52.426;17.100;2023-12-29T00:00:57;7.40;99.90
24091;DHT22;12272;52.426;17.100;2023-12-29T00:06:02;7.20;99.90
24091;DHT22;12272;52.426;17.100;2023-12-29T00:11:05;6.90;99.90
24091;DHT22;12272;52.426;17.100;2023-12-29T00:16:07;7.00;99.90
24091;DHT22;12272;52.426;17.100;2023-12-29T00:21:10;7.10;99.90
24091;DHT22;12272;52.426;17.100;2023-12-29T00:26:12;6.70;99.90
24091;DHT22;12272;52.426;17.100;2023-12-29T00:31:15;6.50;99.90
24091;DHT22;12272;52.426;17.100;2023-12-29T00:36:19;6.80;99.90
24091;DHT22;12272;52.426;17.100;2023-12-29T00:41:22;6.70;99.90
24091;DHT22;12272;52.426;17.100;2023-12-29T00:46:24;7.20;99.90
24091;DHT22;12272;52.426;17.100;2023-12-29T00:51:27;7.00;99.90
24091;DHT22;12272;52.426;17.100;2023-12-29T00:56:29;6.80;99.90
24091;DHT22;12272;52.426;17.100;2023-12-29T01:01:35;6.60;99.90
24091;DHT22;12272;52.426;17.100;2023-12-29T01:06:38;6.50;99.90
24091;DHT22;12272;52.426;17.100;2023-12-29T01:11:40;6.60;99.90
24091;DHT22;12272;52.426;17.100;2023-12-29T01:16:43;6.80;99.90
24091;DHT22;12272;52.426;17.100;2023-12-29T01:21:45;7.00;99.90
24091;DHT22;12272;52.426;17.100;2023-12-29T01:26:48;7.40;99.90
24091;DHT22;12272;52.426;17.100;2023-12-29T01:31:50;7.70;99.90
24091;DHT22;12272;52.426;17.100;2023-12-29T01:36:53;7.80;99.90
24091;DHT22;12272;52.426;17.100;2023-12-29T01:41:56;7.70;99.90
24091;DHT22;12272;52.426;17.100;2023-12-29T01:47:00;8.00;99.90
24091;DHT22;12272;52.426;17.100;2023-12-29T01:52:03;7.90;99.90
24091;DHT22;12272;52.426;17.100;2023-12-29T01:57:06;7.70;99.90
24091;DHT22;12272;52.426;17.100;2023-12-29T02:02:11;8.50;99.90
24091;DHT22;12272;52.426;17.100;2023-12-29T02:07:15;8.50;99.90
24091;DHT22;12272;52.426;17.100;2023-12-29T02:12:17;9.00;99.90
24091;DHT22;12272;52.426;17.100;2023-12-29T02:17:27;9.40;99.90
24091;DHT22;12272;52.426;17.100;2023-12-29T02:22:30;9.80;99.90
24091;DHT22;12272;52.426;17.100;2023-12-29T02:27:43;10.10;99.90
24091;DHT22;12272;52.426;17.100;2023-12-29T02:32:49;9.70;99.90
24091;DHT22;12272;52.426;17.100;2023-12-29T02:37:54;9.80;99.90
24091;DHT22;12272;52.426;17.100;2023-12-29T02:42:58;10.50;99.90
24091;DHT22;12272;52.426;17.100;2023-12-29T02:48:01;10.10;99.90
24091;DHT22;12272;52.426;17.100;2023-12-29T02:53:04;10.60;99.90
24091;DHT22;12272;52.426;17.100;2023-12-29T02:58:07;10.90;99.90
24091;DHT22;12272;52.426;17.100;2023-12-29T03:03:09;11.20;99.90
24091;DHT22;12272;52.426;17.100;2023-12-29T03:08:12;10.80;99.90
24091;DHT22;12272;52.426;17.100;2023-12-29T03:13:14;11.00;99.90
24091;DHT22;12272;52.426;17.100;2023-12-29T03:18:17;11.00;99.90
24091;DHT22;12272;52.426;17.100;2023-12-29T03:23:20;11.00;99.90
24091;DHT22;12272;52.426;17.100;2023-12-29T03:28:22;10.80;99.90
24091;DHT22;12272;52.426;17.100;2023-12-29T03:33:24;10.80;99.90
24091;DHT22;12272;52.426;17.100;2023-12-29T03:38:28;10.50;99.90
24091;DHT22;12272;52.426;17.100;2023-12-29T03:43:30;10.50;99.90
24091;DHT22;12272;52.426;17.100;2023-12-29T03:48:33;10.30;99.90
24091;DHT22;12272;52.426;17.100;2023-12-29T03:53:36;10.50;99.90
24091;DHT22;12272;52.426;17.100;2023-12-29T03:58:38;10.40;99.90
24091;DHT22;12272;52.426;17.100;2023-12-29T04:03:41;9.90;99.90
24091;DHT22;12272;52.426;17.100;2023-12-29T04:08:44;10.20;99.90
24091;DHT22;12272;52.426;17.100;2023-12-29T04:13:47;10.10;99.90
24091;DHT22;12272;52.426;17.100;2023-12-29T04:18:50;9.90;99.90
24091;DHT22;12272;52.426;17.100;2023-12-29T04:23:52;10.00;99.90
24091;DHT22;12272;52.426;17.100;2023-12-29T04:28:55;10.50;99.90
24091;DHT22;12272;52.426;17.100;2023-12-29T04:33:57;11.00;99.90
24091;DHT22;12272;52.426;17.100;2023-12-29T04:39:01;10.80;99.90
24091;DHT22;12272;52.426;17.100;2023-12-29T04:44:04;10.70;99.90
24091;DHT22;12272;52.426;17.100;2023-12-29T04:49:06;10.50;99.90
24091;DHT22;12272;52.426;17.100;2023-12-29T04:54:09;10.40;99.90
24091;DHT22;12272;52.426;17.100;2023-12-29T04:59:11;10.00;99.90
24091;DHT22;12272;52.426;17.100;2023-12-29T05:04:14;10.10;99.90
24091;DHT22;12272;52.426;17.100;2023-12-29T05:09:17;9.80;99.90
24091;DHT22;12272;52.426;17.100;2023-12-29T05:14:20;9.40;99.90
24091;DHT22;12272;52.426;17.100;2023-12-29T05:19:22;8.70;99.90
24091;DHT22;12272;52.426;17.100;2023-12-29T05:24:24;8.10;99.90
24091;DHT22;12272;52.426;17.100;2023-12-29T05:29:27;7.80;99.90
24091;DHT22;12272;52.426;17.100;2023-12-29T05:34:29;7.60;99.90
24091;DHT22;12272;52.426;17.100;2023-12-29T05:39:32;7.50;99.90
24091;DHT22;12272;52.426;17.100;2023-12-29T05:44:37;7.30;99.90
24091;DHT22;12272;52.426;17.100;2023-12-29T05:49:40;7.10;99.90
24091;DHT22;12272;52.426;17.100;2023-12-29T05:54:42;6.90;99.90
24091;DHT22;12272;52.426;17.100;2023-12-29T05:59:45;6.90;99.90
24091;DHT22;12272;52.426;17.100;2023-12-29T06:04:49;6.80;99.90
24091;DHT22;12272;52.426;17.100;2023-12-29T06:09:51;6.80;99.90
24091;DHT22;12272;52.426;17.100;2023-12-29T06:14:54;7.00;99.90
24091;DHT22;12272;52.426;17.100;2023-12-29T06:19:56;7.30;99.90
24091;DHT22;12272;52.426;17.100;2023-12-29T06:24:59;7.80;99.90
24091;DHT22;12272;52.426;17.100;2023-12-29T06:30:02;8.10;99.90
24091;DHT22;12272;52.426;17.100;2023-12-29T06:35:04;8.10;99.90
24091;DHT22;12272;52.426;17.100;2023-12-29T06:40:07;8.30;99.90
24091;DHT22;12272;52.426;17.100;2023-12-29T06:45:11;9.00;99.90
24091;DHT22;12272;52.426;17.100;2023-12-29T06:50:13;8.60;99.90
24091;DHT22;12272;52.426;17.100;2023-12-29T06:55:16;8.80;99.90
24091;DHT22;12272;52.426;17.100;2023-12-29T07:00:19;8.60;99.90
24091;DHT22;12272;52.426;17.100;2023-12-29T07:05:21;8.50;99.90
24091;DHT22;12272;52.426;17.100;2023-12-29T07:10:24;8.40;99.90
24091;DHT22;12272;52.426;17.100;2023-12-29T07:15:26;8.80;99.90
24091;DHT22;12272;52.426;17.100;2023-12-29T07:20:29;9.40;99.90
24091;DHT22;12272;52.426;17.100;2023-12-29T07:25:31;9.70;99.90
24091;DHT22;12272;52.426;17.100;2023-12-29T07:30:34;9.90;99.90
24091;DHT22;12272;52.426;17.100;2023-12-29T07:35:36;10.40;99.90
24091;DHT22;12272;52.426;17.100;2023-12-29T07:40:40;10.50;99.90
24091;DHT22;12272;52.426;17.100;2023-12-29T07:45:42;10.90;99.90
24091;DHT22;12272;52.426;17.100;2023-12-29T07:50:48;10.90;99.90
24091;DHT22;12272;52.426;17.100;2023-12-29T07:55:50;10.90;99.90
24091;DHT22;12272;52.426;17.100;2023-12-29T08:00:55;11.10;99.90
24091;DHT22;12272;52.426;17.100;2023-12-29T08:05:58;11.10;99.90
24091;DHT22;12272;52.426;17.100;2023-12-29T08:11:00;10.90;99.90
24091;DHT22;12272;52.426;17.100;2023-12-29T08:16:03;10.90;99.90
24091;DHT22;12272;52.426;17.100;2023-12-29T08:21:05;11.50;99.90
24091;DHT22;12272;52.426;17.100;2023-12-29T08:26:08;11.50;99.90
24091;DHT22;12272;52.426;17.100;2023-12-29T08:31:10;11.70;99.90
24091;DHT22;12272;52.426;17.100;2023-12-29T08:36:14;11.90;99.90
24091;DHT22;12272;52.426;17.100;2023-12-29T09:01:32;13.50;99.90
24091;DHT22;12272;52.426;17.100;2023-12-29T09:06:36;13.60;99.90
24091;DHT22;12272;52.426;17.100;2023-12-29T09:11:45;14.00;99.90
24091;DHT22;12272;52.426;17.100;2023-12-29T09:16:47;14.00;99.90
24091;DHT22;12272;52.426;17.100;2023-12-29T09:21:50;14.20;99.90
24091;DHT22;12272;52.426;17.100;2023-12-29T09:26:52;14.30;99.90
24091;DHT22;12272;52.426;17.100;2023-12-29T09:31:55;14.40;99.90
24091;DHT22;12272;52.426;17.100;2023-12-29T09:36:57;14.40;99.90
24091;DHT22;12272;52.426;17.100;2023-12-29T09:42:01;14.70;99.90
24091;DHT22;12272;52.426;17.100;2023-12-29T09:47:08;14.50;99.90
24091;DHT22;12272;52.426;17.100;2023-12-29T09:52:13;14.30;99.90
24091;DHT22;12272;52.426;17.100;2023-12-29T09:57:17;14.40;99.90
24091;DHT22;12272;52.426;17.100;2023-12-29T10:02:20;14.20;99.90
24091;DHT22;12272;52.426;17.100;2023-12-29T10:07:26;14.20;99.90
24091;DHT22;12272;52.426;17.100;2023-12-29T10:12:29;14.00;99.90
24091;DHT22;12272;52.426;17.100;2023-12-29T10:27:52;14.40;99.90
24091;DHT22;12272;52.426;17.100;2023-12-29T10:32:55;14.20;99.90
24091;DHT22;12272;52.426;17.100;2023-12-29T10:38:11;14.40;99.90
24091;DHT22;12272;52.426;17.100;2023-12-29T10:43:24;14.60;99.90
24091;DHT22;12272;52.426;17.100;2023-12-29T10:48:27;14.50;99.90
24091;DHT22;12272;52.426;17.100;2023-12-29T10:53:30;14.40;99.90
24091;DHT22;12272;52.426;17.100;2023-12-29T10:58:33;14.40;99.90
24091;DHT22;12272;52.426;17.100;2023-12-29T11:03:40;14.10;99.90
24091;DHT22;12272;52.426;17.100;2023-12-29T11:08:42;13.80;99.90
24091;DHT22;12272;52.426;17.100;2023-12-29T11:13:46;14.10;99.90
24091;DHT22;12272;52.426;17.100;2023-12-29T11:18:49;14.10;99.90
24091;DHT22;12272;52.426;17.100;2023-12-29T11:23:53;14.10;99.90
24091;DHT22;12272;52.426;17.100;2023-12-29T11:28:56;14.30;99.90
24091;DHT22;12272;52.426;17.100;2023-12-29T11:34:12;14.10;99.90
24091;DHT22;12272;52.426;17.100;2023-12-29T11:44:27;13.60;99.90
24091;DHT22;12272;52.426;17.100;2023-12-29T11:49:58;13.40;99.90
24091;DHT22;12272;52.426;17.100;2023-12-29T12:00:12;13.80;99.90
24091;DHT22;12272;52.426;17.100;2023-12-29T12:05:49;13.70;99.90
24091;DHT22;12272;52.426;17.100;2023-12-29T12:10:53;13.50;99.90
24091;DHT22;12272;52.426;17.100;2023-12-29T12:15:55;13.70;99.90
24091;DHT22;12272;52.426;17.100;2023-12-29T12:20:59;13.60;99.90
24091;DHT22;12272;52.426;17.100;2023-12-29T12:26:04;13.70;99.90
24091;DHT22;12272;52.426;17.100;2023-12-29T12:31:07;13.50;99.90
24091;DHT22;12272;52.426;17.100;2023-12-29T12:36:11;13.70;99.90
24091;DHT22;12272;52.426;17.100;2023-12-29T12:41:14;14.00;99.90
24091;DHT22;12272;52.426;17.100;2023-12-29T12:46:22;13.80;99.90
24091;DHT22;12272;52.426;17.100;2023-12-29T12:51:26;13.50;99.90
24091;DHT22;12272;52.426;17.100;2023-12-29T12:56:29;13.70;99.90
24091;DHT22;12272;52.426;17.100;2023-12-29T13:01:37;13.40;99.90
24091;DHT22;12272;52.426;17.100;2023-12-29T13:06:41;13.10;99.90
24091;DHT22;12272;52.426;17.100;2023-12-29T13:11:47;13.00;99.90
24091;DHT22;12272;52.426;17.100;2023-12-29T13:16:50;12.60;99.90
24091;DHT22;12272;52.426;17.100;2023-12-29T13:39:39;12.80;99.90
24091;DHT22;12272;52.426;17.100;2023-12-29T13:44:44;13.00;99.90
24091;DHT22;12272;52.426;17.100;2023-12-29T13:49:48;12.40;99.90
24091;DHT22;12272;52.426;17.100;2023-12-29T13:54:52;12.80;99.90
24091;DHT22;12272;52.426;17.100;2023-12-29T13:59:55;13.10;99.90
24091;DHT22;12272;52.426;17.100;2023-12-29T14:05:19;13.00;99.90
24091;DHT22;12272;52.426;17.100;2023-12-29T14:10:22;13.50;99.90
24091;DHT22;12272;52.426;17.100;2023-12-29T14:15:25;13.20;99.90
24091;DHT22;12272;52.426;17.100;2023-12-29T14:20:33;13.00;99.90
24091;DHT22;12272;52.426;17.100;2023-12-29T14:25:38;12.60;99.90
24091;DHT22;12272;52.426;17.100;2023-12-29T14:30:41;12.30;99.90
24091;DHT22;12272;52.426;17.100;2023-12-29T14:35:44;12.00;99.90
24091;DHT22;12272;52.426;17.100;2023-12-29T14:40:51;12.10;99.90
24091;DHT22;12272;52.426;17.100;2023-12-29T14:45:56;12.00;99.90
24091;DHT22;12272;52.426;17.100;2023-12-29T14:50:58;11.90;99.90
24091;DHT22;12272;52.426;17.100;2023-12-29T14:56:01;12.20;99.90
24091;DHT22;12272;52.426;17.100;2023-12-29T15:01:04;12.50;99.90
24091;DHT22;12272;52.426;17.100;2023-12-29T15:06:06;12.40;99.90
24091;DHT22;12272;52.426;17.100;2023-12-29T15:11:09;12.60;99.90
24091;DHT22;12272;52.426;17.100;2023-12-29T15:16:12;12.50;99.90
24091;DHT22;12272;52.426;17.100;2023-12-29T15:21:14;12.50;99.90
24091;DHT22;12272;52.426;17.100;2023-12-29T15:26:17;12.40;99.90
24091;DHT22;12272;52.426;17.100;2023-12-29T15:31:21;12.60;99.90
24091;DHT22;12272;52.426;17.100;2023-12-29T15:36:24;12.60;99.90
24091;DHT22;12272;52.426;17.100;2023-12-29T15:41:26;12.90;99.90
24091;DHT22;12272;52.426;17.100;2023-12-29T15:46:29;12.70;99.90
24091;DHT22;12272;52.426;17.100;2023-12-29T15:51:31;12.50;99.90
24091;DHT22;12272;52.426;17.100;2023-12-29T15:56:34;12.40;99.90
24091;DHT22;12272;52.426;17.100;2023-12-29T16:01:36;12.20;99.90
24091;DHT22;12272;52.426;17.100;2023-12-29T16:06:39;12.20;99.90
24091;DHT22;12272;52.426;17.100;2023-12-29T16:11:41;12.20;99.90
24091;DHT22;12272;52.426;17.100;2023-12-29T16:16:44;11.80;99.90
24091;DHT22;12272;52.426;17.100;2023-12-29T16:21:46;11.30;99.90
24091;DHT22;12272;52.426;17.100;2023-12-29T16:26:49;10.90;99.90
24091;DHT22;12272;52.426;17.100;2023-12-29T16:31:53;10.50;99.90
24091;DHT22;12272;52.426;17.100;2023-12-29T16:36:58;10.40;99.90
24091;DHT22;12272;52.426;17.100;2023-12-29T16:42:02;10.30;99.90
24091;DHT22;12272;52.426;17.100;2023-12-29T16:47:06;10.10;99.90
24091;DHT22;12272;52.426;17.100;2023-12-29T16:52:09;10.00;99.90
24091;DHT22;12272;52.426;17.100;2023-12-29T16:57:11;10.20;99.90
24091;DHT22;12272;52.426;17.100;2023-12-29T17:02:14;10.10;99.90
24091;DHT22;12272;52.426;17.100;2023-12-29T17:07:16;10.10;99.90
24091;DHT22;12272;52.426;17.100;2023-12-29T17:12:19;9.90;99.90
24091;DHT22;12272;52.426;17.100;2023-12-29T17:17:21;9.80;99.90
24091;DHT22;12272;52.426;17.100;2023-12-29T17:22:24;9.70;99.90
24091;DHT22;12272;52.426;17.100;2023-12-29T17:27:27;9.70;99.90
24091;DHT22;12272;52.426;17.100;2023-12-29T17:32:31;9.80;99.90
24091;DHT22;12272;52.426;17.100;2023-12-29T17:37:34;9.70;99.90
24091;DHT22;12272;52.426;17.100;2023-12-29T17:42:36;9.80;99.90
24091;DHT22;12272;52.426;17.100;2023-12-29T17:47:39;9.80;99.90
24091;DHT22;12272;52.426;17.100;2023-12-29T17:52:44;9.90;99.90
24091;DHT22;12272;52.426;17.100;2023-12-29T17:57:47;9.80;99.90
24091;DHT22;12272;52.426;17.100;2023-12-29T18:02:50;10.00;99.90
24091;DHT22;12272;52.426;17.100;2023-12-29T18:07:52;9.90;99.90
24091;DHT22;12272;52.426;17.100;2023-12-29T18:12:55;10.20;99.90
24091;DHT22;12272;52.426;17.100;2023-12-29T18:17:59;10.70;99.90
24091;DHT22;12272;52.426;17.100;2023-12-29T18:23:03;11.00;99.90
24091;DHT22;12272;52.426;17.100;2023-12-29T18:28:09;10.40;99.90
24091;DHT22;12272;52.426;17.100;2023-12-29T18:33:12;10.20;99.90
24091;DHT22;12272;52.426;17.100;2023-12-29T18:38:15;10.90;99.90
24091;DHT22;12272;52.426;17.100;2023-12-29T18:43:18;11.20;99.90
24091;DHT22;12272;52.426;17.100;2023-12-29T18:48:21;11.60;99.90
24091;DHT22;12272;52.426;17.100;2023-12-29T18:53:26;11.50;99.90
24091;DHT22;12272;52.426;17.100;2023-12-29T18:58:29;11.30;99.90
24091;DHT22;12272;52.426;17.100;2023-12-29T19:03:31;11.30;99.90
24091;DHT22;12272;52.426;17.100;2023-12-29T19:08:34;11.20;99.90
24091;DHT22;12272;52.426;17.100;2023-12-29T19:13:38;10.70;99.90
24091;DHT22;12272;52.426;17.100;2023-12-29T19:18:40;10.60;99.90
24091;DHT22;12272;52.426;17.100;2023-12-29T19:23:43;10.90;99.90
24091;DHT22;12272;52.426;17.100;2023-12-29T19:28:46;10.70;99.90
24091;DHT22;12272;52.426;17.100;2023-12-29T19:33:50;10.60;99.90
24091;DHT22;12272;52.426;17.100;2023-12-29T19:38:52;10.60;99.90
24091;DHT22;12272;52.426;17.100;2023-12-29T19:43:55;10.70;99.90
24091;DHT22;12272;52.426;17.100;2023-12-29T19:48:57;10.80;99.90
24091;DHT22;12272;52.426;17.100;2023-12-29T19:54:03;10.80;99.90
24091;DHT22;12272;52.426;17.100;2023-12-29T19:59:06;11.00;99.90
24091;DHT22;12272;52.426;17.100;2023-12-29T20:04:09;11.10;99.90
24091;DHT22;12272;52.426;17.100;2023-12-29T20:09:12;11.00;99.90
24091;DHT22;12272;52.426;17.100;2023-12-29T20:14:14;10.90;99.90
24091;DHT22;12272;52.426;17.100;2023-12-29T20:19:17;10.60;99.90
24091;DHT22;12272;52.426;17.100;2023-12-29T20:24:19;10.40;99.90
24091;DHT22;12272;52.426;17.100;2023-12-29T20:29:22;10.00;99.90
24091;DHT22;12272;52.426;17.100;2023-12-29T20:34:26;9.90;99.90
24091;DHT22;12272;52.426;17.100;2023-12-29T20:39:29;9.70;99.90
24091;DHT22;12272;52.426;17.100;2023-12-29T20:44:31;9.70;99.90
24091;DHT22;12272;52.426;17.100;2023-12-29T20:49:34;9.60;99.90
24091;DHT22;12272;52.426;17.100;2023-12-29T20:54:37;9.50;99.90
24091;DHT22;12272;52.426;17.100;2023-12-29T20:59:41;9.40;99.90
24091;DHT22;12272;52.426;17.100;2023-12-29T21:04:44;9.40;99.90
24091;DHT22;12272;52.426;17.100;2023-12-29T21:09:46;9.30;99.90
24091;DHT22;12272;52.426;17.100;2023-12-29T21:14:50;9.30;99.90
24091;DHT22;12272;52.426;17.100;2023-12-29T21:19:53;9.50;99.90
24091;DHT22;12272;52.426;17.100;2023-12-29T21:24:56;9.70;99.90
24091;DHT22;12272;52.426;17.100;2023-12-29T21:30:00;9.80;99.90
24091;DHT22;12272;52.426;17.100;2023-12-29T21:35:03;9.90;99.90
24091;DHT22;12272;52.426;17.100;2023-12-29T21:40:08;9.90;99.90
24091;DHT22;12272;52.426;17.100;2023-12-29T21:45:11;10.10;99.90
24091;DHT22;12272;52.426;17.100;2023-12-29T21:50:14;10.20;99.90
24091;DHT22;12272;52.426;17.100;2023-12-29T21:55:17;10.50;99.90
24091;DHT22;12272;52.426;17.100;2023-12-29T22:00:22;10.90;99.90
24091;DHT22;12272;52.426;17.100;2023-12-29T22:05:26;10.90;99.90
24091;DHT22;12272;52.426;17.100;2023-12-29T22:10:29;10.90;99.90
24091;DHT22;12272;52.426;17.100;2023-12-29T22:15:31;11.10;99.90
24091;DHT22;12272;52.426;17.100;2023-12-29T22:20:34;11.20;99.90
24091;DHT22;12272;52.426;17.100;2023-12-29T22:25:37;11.30;99.90
24091;DHT22;12272;52.426;17.100;2023-12-29T22:30:40;11.40;99.90
24091;DHT22;12272;52.426;17.100;2023-12-29T22:35:43;11.40;99.90
24091;DHT22;12272;52.426;17.100;2023-12-29T22:40:46;11.40;99.90
24091;DHT22;12272;52.426;17.100;2023-12-29T22:45:48;11.80;99.90
24091;DHT22;12272;52.426;17.100;2023-12-29T22:50:51;12.00;99.90
24091;DHT22;12272;52.426;17.100;2023-12-29T22:55:54;12.30;99.90
24091;DHT22;12272;52.426;17.100;2023-12-29T23:00:57;12.50;99.90
24091;DHT22;12272;52.426;17.100;2023-12-29T23:05:59;12.60;99.90
24091;DHT22;12272;52.426;17.100;2023-12-29T23:11:02;12.50;99.90
24091;DHT22;12272;52.426;17.100;2023-12-29T23:16:05;12.60;99.90
24091;DHT22;12272;52.426;17.100;2023-12-29T23:21:10;12.60;99.90
24091;DHT22;12272;52.426;17.100;2023-12-29T23:26:15;12.80;99.90
24091;DHT22;12272;52.426;17.100;2023-12-29T23:31:17;12.40;99.90
24091;DHT22;12272;52.426;17.100;2023-12-29T23:36:20;12.20;99.90
24091;DHT22;12272;52.426;17.100;2023-12-29T23:41:22;11.90;99.90
24091;DHT22;12272;52.426;17.100;2023-12-29T23:46:25;11.20;99.90
24091;DHT22;12272;52.426;17.100;2023-12-29T23:51:27;10.70;99.90
24091;DHT22;12272;52.426;17.100;2023-12-29T23:56:30;10.40;99.90
